createdAt,value
2022-09-28T00:02:21.850Z,4.18
2022-09-28T00:04:48.491Z,6.63
2022-09-28T00:07:15.225Z,3.70
2022-09-28T00:09:41.780Z,7.50
2022-09-28T00:12:08.359Z,2.90
2022-09-28T00:14:34.969Z,3.30
2022-09-28T00:17:01.643Z,5.57
2022-09-28T00:19:28.227Z,5.03
2022-09-28T00:21:54.748Z,3.72
2022-09-28T00:24:26.641Z,4.72
2022-09-28T00:26:56.730Z,4.22
2022-09-28T00:29:27.674Z,5.10
2022-09-28T00:32:02.151Z,4.10
2022-09-28T00:34:32.001Z,3.75
2022-09-28T00:37:00.092Z,5.17
2022-09-28T00:39:27.196Z,5.43
2022-09-28T00:41:54.636Z,6.30
2022-09-28T00:44:26.837Z,7.18
2022-09-28T00:47:01.095Z,5.85
2022-09-28T00:49:56.974Z,5.22
2022-09-28T00:52:39.385Z,6.47
2022-09-28T00:55:11.935Z,4.88
2022-09-28T00:57:41.292Z,4.35
2022-09-28T01:00:08.689Z,4.30
2022-09-28T01:02:35.214Z,6.03
2022-09-28T01:05:05.325Z,6.65
2022-09-28T01:07:32.853Z,5.68
2022-09-28T01:09:59.567Z,4.95
2022-09-28T01:12:26.152Z,5.72
2022-09-28T01:14:52.966Z,5.15
2022-09-28T01:17:26.891Z,8.35
2022-09-28T01:20:07.975Z,4.53
2022-09-28T01:22:34.479Z,5.63
2022-09-28T01:25:13.096Z,6.05
2022-09-28T01:27:47.742Z,5.15
2022-09-28T01:30:18.137Z,4.80
2022-09-28T01:32:51.332Z,9.35
2022-09-28T01:35:31.135Z,6.38
2022-09-28T01:38:05.851Z,7.10
2022-09-28T01:40:34.420Z,6.63
2022-09-28T01:43:25.964Z,6.22
2022-09-28T01:46:19.347Z,6.00
2022-09-28T01:48:58.761Z,7.88
2022-09-28T01:51:39.101Z,6.30
2022-09-28T01:54:12.273Z,9.48
2022-09-28T01:56:49.521Z,7.82
2022-09-28T01:59:22.061Z,8.45
2022-09-28T02:02:00.516Z,7.53
2022-09-28T02:04:50.092Z,8.65
2022-09-28T02:07:33.293Z,9.65
2022-09-28T02:10:09.637Z,7.82
2022-09-28T02:13:00.089Z,8.57
2022-09-28T02:15:42.862Z,6.85
2022-09-28T02:18:10.270Z,8.80
2022-09-28T02:20:39.181Z,8.48
2022-09-28T02:23:07.961Z,3.47
2022-09-28T02:25:40.361Z,3.50
2022-09-28T02:28:13.804Z,3.28
2022-09-28T02:30:44.019Z,3.13
2022-09-28T02:33:29.782Z,2.30
2022-09-28T02:35:58.453Z,2.47
2022-09-28T02:38:25.024Z,1.90
2022-09-28T02:41:04.728Z,2.17
2022-09-28T02:44:08.734Z,2.67
2022-09-28T02:46:44.456Z,3.20
2022-09-28T02:49:27.550Z,2.92
2022-09-28T02:52:04.152Z,2.45
2022-09-28T02:54:36.277Z,1.30
2022-09-28T02:57:12.272Z,1.13
2022-09-28T03:00:12.842Z,1.17
2022-09-28T03:03:05.830Z,1.63
2022-09-28T03:05:44.511Z,1.52
2022-09-28T03:08:27.774Z,1.35
2022-09-28T03:11:00.058Z,1.65
2022-09-28T03:13:28.275Z,1.20
2022-09-28T03:16:08.708Z,1.20
2022-09-28T03:18:35.467Z,0.68
2022-09-28T03:21:03.870Z,0.75
2022-09-28T03:23:30.515Z,1.35
2022-09-28T03:25:57.234Z,2.67
2022-09-28T03:28:26.199Z,2.55
2022-09-28T03:30:52.736Z,1.88
2022-09-28T03:33:20.035Z,2.08
2022-09-28T03:35:48.320Z,1.30
2022-09-28T03:38:15.050Z,1.98
2022-09-28T03:40:41.695Z,1.73
2022-09-28T03:43:08.421Z,1.52
2022-09-28T03:45:35.030Z,1.70
2022-09-28T03:48:01.853Z,1.38
2022-09-28T03:50:28.393Z,2.17
2022-09-28T03:52:54.919Z,1.63
2022-09-28T03:55:21.529Z,2.75
2022-09-28T03:57:54.919Z,2.38
2022-09-28T04:00:21.447Z,2.55
2022-09-28T04:02:47.951Z,2.50
2022-09-28T04:05:14.546Z,4.07
2022-09-28T04:07:41.158Z,3.22
2022-09-28T04:10:08.272Z,2.72
2022-09-28T04:12:34.895Z,1.63
2022-09-28T04:15:01.510Z,2.30
2022-09-28T04:17:28.009Z,2.25
2022-09-28T04:19:54.521Z,3.65
2022-09-28T04:22:21.056Z,1.95
2022-09-28T04:24:47.679Z,3.65
2022-09-28T04:27:34.005Z,3.35
2022-09-28T04:30:00.503Z,3.05
2022-09-28T04:32:27.204Z,2.92
2022-09-28T04:34:53.718Z,5.85
2022-09-28T04:37:20.316Z,3.90
2022-09-28T04:39:48.536Z,4.35
2022-09-28T04:42:15.967Z,6.28
2022-09-28T04:44:42.750Z,2.95
2022-09-28T04:47:09.349Z,2.80
2022-09-28T04:49:37.116Z,4.72
2022-09-28T04:52:05.041Z,3.88
2022-09-28T04:54:31.560Z,3.45
2022-09-28T04:56:58.623Z,2.63
2022-09-28T04:59:25.998Z,3.30
2022-09-28T05:01:53.653Z,3.78
2022-09-28T05:04:24.970Z,2.45
2022-09-28T05:06:52.458Z,2.55
2022-09-28T05:09:19.109Z,2.25
2022-09-28T05:11:45.583Z,3.60
2022-09-28T05:14:12.405Z,3.03
2022-09-28T05:16:38.956Z,3.05
2022-09-28T05:19:06.470Z,4.38
2022-09-28T05:21:32.999Z,3.33
2022-09-28T05:23:59.606Z,4.35
2022-09-28T05:26:26.137Z,4.38
2022-09-28T05:28:52.665Z,3.38
2022-09-28T05:31:19.241Z,5.55
2022-09-28T05:33:45.806Z,2.78
2022-09-28T05:36:12.385Z,3.22
2022-09-28T05:38:38.936Z,2.75
2022-09-28T05:41:06.770Z,3.17
2022-09-28T05:43:33.699Z,3.33
2022-09-28T05:46:00.602Z,4.03
2022-09-28T05:48:28.267Z,2.70
2022-09-28T05:50:54.996Z,3.60
2022-09-28T05:53:21.855Z,4.07
2022-09-28T05:55:48.619Z,3.85
2022-09-28T05:58:15.298Z,3.58
2022-09-28T06:00:42.449Z,7.05
2022-09-28T06:03:12.063Z,5.43
2022-09-28T06:05:42.122Z,4.68
2022-09-28T06:08:12.977Z,2.40
2022-09-28T06:10:39.975Z,3.20
2022-09-28T06:13:07.572Z,5.80
2022-09-28T06:15:35.911Z,4.30
2022-09-28T06:18:04.734Z,3.20
2022-09-28T06:20:36.519Z,3.35
2022-09-28T06:23:03.589Z,4.97
2022-09-28T06:25:30.289Z,6.45
2022-09-28T06:28:02.208Z,2.88
2022-09-28T06:30:30.852Z,4.47
2022-09-28T06:32:58.890Z,2.40
2022-09-28T06:35:28.420Z,4.78
2022-09-28T06:37:54.951Z,2.85
2022-09-28T06:40:31.126Z,3.92
2022-09-28T06:43:10.083Z,4.28
2022-09-28T06:45:38.287Z,1.77
2022-09-28T06:48:05.675Z,2.95
2022-09-28T06:50:34.555Z,2.80
2022-09-28T06:53:01.504Z,3.30
2022-09-28T06:55:28.929Z,3.88
2022-09-28T06:58:04.164Z,3.15
2022-09-28T07:00:34.210Z,2.63
2022-09-28T07:03:06.924Z,5.70
2022-09-28T07:05:36.772Z,3.53
2022-09-28T07:08:04.690Z,1.58
2022-09-28T07:10:31.866Z,1.60
2022-09-28T07:13:02.659Z,3.30
2022-09-28T07:15:29.981Z,1.52
2022-09-28T07:18:04.388Z,2.80
2022-09-28T07:20:38.252Z,2.38
2022-09-28T07:23:18.450Z,4.93
2022-09-28T07:25:47.878Z,2.75
2022-09-28T07:28:15.280Z,2.63
2022-09-28T07:30:43.492Z,3.75
2022-09-28T07:33:12.657Z,1.40
2022-09-28T07:35:39.187Z,2.25
2022-09-28T07:38:07.097Z,2.88
2022-09-28T07:40:54.536Z,1.25
2022-09-28T07:43:21.944Z,2.03
2022-09-28T07:45:50.509Z,2.72
2022-09-28T07:48:18.702Z,1.60
2022-09-28T07:50:51.602Z,2.35
2022-09-28T07:53:23.176Z,3.15
2022-09-28T07:55:57.588Z,1.75
2022-09-28T07:58:24.341Z,2.17
2022-09-28T08:00:51.108Z,3.05
2022-09-28T08:03:19.018Z,4.35
2022-09-28T08:05:46.937Z,3.92
2022-09-28T08:08:14.444Z,2.33
2022-09-28T08:10:46.850Z,1.75
2022-09-28T08:13:15.188Z,3.17
2022-09-28T08:15:42.783Z,4.78
2022-09-28T08:18:09.763Z,3.78
2022-09-28T08:20:55.341Z,4.05
2022-09-28T08:23:21.926Z,3.35
2022-09-28T08:25:49.091Z,1.63
2022-09-28T08:28:19.981Z,5.30
2022-09-28T08:30:47.661Z,1.15
2022-09-28T08:33:16.143Z,3.17
2022-09-28T08:35:43.094Z,2.67
2022-09-28T08:38:10.118Z,1.42
2022-09-28T08:41:14.181Z,3.13
2022-09-28T08:43:51.629Z,2.03
2022-09-28T08:46:25.012Z,2.30
2022-09-28T08:49:23.627Z,2.60
2022-09-28T08:51:53.932Z,4.00
2022-09-28T08:54:45.353Z,4.03
2022-09-28T08:57:14.602Z,1.92
2022-09-28T08:59:41.138Z,1.98
2022-09-28T09:02:16.145Z,3.50
2022-09-28T09:04:42.973Z,2.53
2022-09-28T09:07:47.216Z,2.65
2022-09-28T09:10:38.712Z,1.58
2022-09-28T09:13:42.402Z,2.55
2022-09-28T09:16:17.434Z,2.92
2022-09-28T09:19:10.198Z,1.80
2022-09-28T09:21:40.369Z,1.35
2022-09-28T09:24:27.818Z,4.28
2022-09-28T09:27:05.598Z,3.35
2022-09-28T09:29:50.609Z,2.00
2022-09-28T09:32:40.409Z,1.90
2022-09-28T09:35:31.562Z,2.83
2022-09-28T09:38:33.203Z,1.77
2022-09-28T09:41:23.963Z,0.57
2022-09-28T09:46:37.739Z,3.28
2022-09-28T09:49:21.499Z,2.83
2022-09-28T09:51:58.892Z,1.67
2022-09-28T09:54:49.139Z,2.25
2022-09-28T09:57:40.626Z,1.23
2022-09-28T10:00:15.241Z,1.38
2022-09-28T10:02:45.043Z,1.77
2022-09-28T10:05:11.499Z,2.75
2022-09-28T10:08:08.775Z,1.42
2022-09-28T10:10:38.091Z,2.88
2022-09-28T10:13:05.169Z,2.15
2022-09-28T10:15:35.216Z,4.00
2022-09-28T10:18:06.851Z,3.67
2022-09-28T10:20:45.078Z,2.45
2022-09-28T10:23:25.747Z,0.77
2022-09-28T10:28:39.539Z,1.50
2022-09-28T10:31:34.602Z,1.48
2022-09-28T10:34:01.233Z,2.58
2022-09-28T10:36:28.187Z,0.75
2022-09-28T10:38:55.897Z,1.42
2022-09-28T10:41:22.941Z,1.95
2022-09-28T10:44:06.761Z,1.30
2022-09-28T10:46:35.342Z,1.75
2022-09-28T10:49:04.315Z,2.08
2022-09-28T10:52:08.750Z,1.33
2022-09-28T10:54:37.054Z,1.67
2022-09-28T10:57:03.744Z,1.50
2022-09-28T10:59:30.177Z,2.17
2022-09-28T11:01:58.164Z,1.17
2022-09-28T11:04:28.685Z,1.67
2022-09-28T11:09:31.159Z,2.67
2022-09-28T11:12:04.519Z,1.42
2022-09-28T11:14:42.079Z,1.42
2022-09-28T11:17:30.863Z,1.52
2022-09-28T11:20:27.391Z,2.50
2022-09-28T11:23:00.172Z,1.10
2022-09-28T11:25:29.178Z,2.55
2022-09-28T11:28:04.662Z,1.10
2022-09-28T11:30:42.534Z,2.10
2022-09-28T11:33:28.750Z,2.08
2022-09-28T11:36:13.697Z,1.33
2022-09-28T11:38:49.304Z,1.17
2022-09-28T11:41:33.809Z,1.30
2022-09-28T11:44:32.612Z,1.33
2022-09-28T11:47:19.683Z,1.77
2022-09-28T11:50:24.602Z,2.25
2022-09-28T11:52:53.981Z,1.45
2022-09-28T11:55:29.803Z,0.80
2022-09-28T11:58:11.772Z,2.25
2022-09-28T12:00:50.975Z,2.83
2022-09-28T12:03:31.191Z,0.63
2022-09-28T12:06:05.281Z,1.48
2022-09-28T12:08:44.780Z,3.45
2022-09-28T12:11:32.167Z,1.27
2022-09-28T12:14:01.403Z,1.70
2022-09-28T12:17:07.290Z,1.90
2022-09-28T12:20:01.614Z,3.30
2022-09-28T12:23:16.261Z,0.93
2022-09-28T12:25:46.831Z,1.30
2022-09-28T12:30:57.172Z,1.10
2022-09-28T12:33:23.768Z,0.52
2022-09-28T12:36:08.976Z,1.85
2022-09-28T12:38:41.672Z,0.93
2022-09-28T12:41:28.871Z,1.58
2022-09-28T12:44:17.261Z,1.05
2022-09-28T12:46:56.795Z,1.38
2022-09-28T12:52:48.958Z,2.42
2022-09-28T12:55:31.475Z,5.47
2022-09-28T12:58:28.531Z,1.48
2022-09-28T13:01:20.484Z,2.83
2022-09-28T13:03:49.738Z,4.35
2022-09-28T13:06:38.807Z,3.55
2022-09-28T13:09:12.485Z,2.88
2022-09-28T13:12:10.506Z,1.42
2022-09-28T13:15:15.492Z,2.78
2022-09-28T13:17:56.904Z,1.70
2022-09-28T13:20:46.644Z,2.92
2022-09-28T13:23:21.692Z,0.80
2022-09-28T13:25:55.715Z,0.40
2022-09-28T13:28:27.134Z,1.55
2022-09-28T13:33:36.959Z,1.27
2022-09-28T13:36:25.790Z,0.70
2022-09-28T13:38:53.613Z,1.45
2022-09-28T13:41:32.109Z,1.77
2022-09-28T13:44:20.278Z,0.95
2022-09-28T13:46:58.131Z,1.33
2022-09-28T13:49:43.367Z,2.38
2022-09-28T13:52:21.373Z,1.65
2022-09-28T13:55:12.926Z,1.48
2022-09-28T13:57:51.896Z,1.60
2022-09-28T14:00:28.664Z,2.03
2022-09-28T14:03:04.421Z,3.17
2022-09-28T14:06:00.713Z,2.88
2022-09-28T14:08:45.378Z,1.80
2022-09-28T14:11:27.190Z,1.52
2022-09-28T14:14:05.538Z,1.63
2022-09-28T14:16:34.021Z,2.03
2022-09-28T14:19:24.348Z,1.13
2022-09-28T14:22:09.219Z,2.28
2022-09-28T14:25:00.592Z,1.33
2022-09-28T14:27:36.919Z,1.40
2022-09-28T14:30:13.023Z,1.23
2022-09-28T14:32:53.463Z,0.47
2022-09-28T14:35:34.021Z,1.02
2022-09-28T14:38:24.140Z,1.42
2022-09-28T14:41:17.702Z,0.98
2022-09-28T14:43:44.168Z,2.42
2022-09-28T14:46:20.154Z,2.05
2022-09-28T14:49:03.783Z,1.67
2022-09-28T14:51:30.289Z,2.22
2022-09-28T14:54:01.140Z,3.72
2022-09-28T14:56:45.584Z,1.40
2022-09-28T14:59:17.966Z,1.77
2022-09-28T15:01:57.789Z,1.98
2022-09-28T15:04:29.065Z,2.47
2022-09-28T15:06:55.730Z,1.65
2022-09-28T15:09:39.178Z,1.38
2022-09-28T15:12:17.034Z,1.90
2022-09-28T15:15:02.751Z,4.00
2022-09-28T15:17:38.554Z,2.00
2022-09-28T15:20:25.326Z,1.63
2022-09-28T15:22:57.279Z,1.33
2022-09-28T15:25:29.157Z,1.58
2022-09-28T15:28:02.325Z,1.05
2022-09-28T15:30:31.866Z,1.75
2022-09-28T15:33:18.705Z,0.75
2022-09-28T15:35:59.341Z,3.05
2022-09-28T15:40:52.406Z,1.77
2022-09-28T15:43:33.055Z,2.17
2022-09-28T15:48:48.213Z,1.80
2022-09-28T15:51:14.752Z,3.28
2022-09-28T15:53:46.087Z,3.20
2022-09-28T15:56:12.834Z,3.28
2022-09-28T15:58:39.992Z,3.65
2022-09-28T16:01:32.030Z,1.95
2022-09-28T16:03:59.803Z,1.38
2022-09-28T16:06:26.360Z,2.83
2022-09-28T16:08:53.727Z,1.95
2022-09-28T16:11:25.951Z,2.75
2022-09-28T16:14:21.529Z,2.47
2022-09-28T16:16:50.376Z,4.45
2022-09-28T16:19:25.760Z,2.67
2022-09-28T16:21:56.671Z,5.15
2022-09-28T16:24:28.275Z,1.25
2022-09-28T16:27:04.575Z,2.35
2022-09-28T16:29:39.771Z,1.45
2022-09-28T16:32:24.995Z,2.00
2022-09-28T16:35:11.643Z,3.08
2022-09-28T16:37:43.009Z,2.42
2022-09-28T16:40:10.190Z,2.90
2022-09-28T16:42:37.896Z,2.92
2022-09-28T16:45:05.402Z,3.58
2022-09-28T16:47:34.171Z,2.72
2022-09-28T16:50:02.328Z,4.32
2022-09-28T16:52:47.693Z,2.47
2022-09-28T16:58:04.823Z,3.60
2022-09-28T17:00:31.871Z,6.10
2022-09-28T17:02:58.589Z,4.80
2022-09-28T17:05:25.548Z,2.55
2022-09-28T17:08:01.680Z,4.38
2022-09-28T17:11:09.759Z,3.55
2022-09-28T17:13:33.850Z,3.35
2022-09-28T17:16:01.832Z,2.97
2022-09-28T17:18:31.794Z,3.15
2022-09-28T17:21:03.165Z,6.50
2022-09-28T17:23:30.080Z,5.95
2022-09-28T17:25:57.299Z,5.78
2022-09-28T17:28:28.033Z,3.33
2022-09-28T17:30:54.724Z,3.08
2022-09-28T17:33:21.391Z,3.47
2022-09-28T17:35:48.536Z,3.40
2022-09-28T17:38:16.031Z,2.85
2022-09-28T17:40:43.888Z,3.55
2022-09-28T17:43:10.468Z,3.95
2022-09-28T17:45:41.691Z,2.80
2022-09-28T17:48:15.831Z,3.22
2022-09-28T17:50:46.438Z,5.57
2022-09-28T17:53:14.005Z,3.97
2022-09-28T17:55:40.727Z,2.55
2022-09-28T17:58:21.694Z,3.33
2022-09-28T18:00:50.095Z,5.13
2022-09-28T18:03:19.979Z,3.83
2022-09-28T18:05:48.993Z,3.97
2022-09-28T18:08:21.007Z,5.45
2022-09-28T18:10:47.673Z,6.95
2022-09-28T18:13:14.663Z,3.83
2022-09-28T18:15:41.687Z,5.45
2022-09-28T18:18:09.601Z,5.03
2022-09-28T18:20:37.144Z,3.47
2022-09-28T18:23:05.042Z,3.08
2022-09-28T18:25:31.515Z,3.40
2022-09-28T18:28:00.019Z,4.88
2022-09-28T18:30:27.849Z,4.68
2022-09-28T18:32:55.285Z,5.75
2022-09-28T18:35:23.504Z,7.18
2022-09-28T18:37:50.550Z,4.72
2022-09-28T18:40:17.843Z,3.58
2022-09-28T18:42:44.383Z,4.78
2022-09-28T18:45:11.364Z,7.13
2022-09-28T18:47:40.647Z,5.25
2022-09-28T18:50:07.666Z,6.00
2022-09-28T18:52:38.572Z,6.43
2022-09-28T18:55:06.733Z,6.70
2022-09-28T18:57:34.533Z,4.10
2022-09-28T19:00:02.822Z,6.50
2022-09-28T19:02:29.447Z,6.72
2022-09-28T19:04:56.146Z,4.70
2022-09-28T19:07:23.248Z,6.35
2022-09-28T19:09:50.898Z,8.18
2022-09-28T19:12:17.418Z,9.13
2022-09-28T19:14:43.932Z,6.32
2022-09-28T19:17:10.771Z,7.13
2022-09-28T19:19:37.533Z,6.38
2022-09-28T19:22:04.459Z,5.95
2022-09-28T19:24:31.048Z,5.90
2022-09-28T19:26:57.637Z,5.68
2022-09-28T19:29:24.186Z,6.32
2022-09-28T19:31:51.871Z,5.30
2022-09-28T19:34:18.760Z,5.60
2022-09-28T19:36:45.496Z,7.32
2022-09-28T19:39:15.222Z,4.32
2022-09-28T19:41:45.786Z,5.85
2022-09-28T19:44:27.244Z,6.72
2022-09-28T19:47:06.926Z,6.70
2022-09-28T19:49:38.807Z,6.47
2022-09-28T19:52:16.060Z,6.88
2022-09-28T19:54:55.773Z,5.65
2022-09-28T19:57:24.977Z,7.28
2022-09-28T19:59:53.008Z,6.70
2022-09-28T20:02:21.726Z,11.27
2022-09-28T20:04:48.704Z,9.48
2022-09-28T20:07:15.400Z,8.43
2022-09-28T20:09:42.236Z,8.98
2022-09-28T20:12:09.309Z,10.27
2022-09-28T20:14:38.231Z,10.07
2022-09-28T20:17:06.753Z,9.35
2022-09-28T20:19:33.655Z,10.88
2022-09-28T20:22:03.166Z,8.00
2022-09-28T20:24:31.217Z,10.50
2022-09-28T20:26:58.129Z,11.90
2022-09-28T20:29:25.185Z,11.95
2022-09-28T20:31:52.148Z,9.68
2022-09-28T20:34:18.797Z,9.18
2022-09-28T20:36:45.523Z,9.90
2022-09-28T20:39:12.379Z,7.15
2022-09-28T20:41:39.182Z,8.07
2022-09-28T20:44:06.751Z,9.45
2022-09-28T20:46:37.024Z,8.10
2022-09-28T20:49:05.080Z,7.55
2022-09-28T20:51:32.345Z,8.23
2022-09-28T20:53:59.405Z,10.55
2022-09-28T20:56:34.609Z,8.88
2022-09-28T20:59:01.138Z,10.20
2022-09-28T21:01:30.161Z,8.65
2022-09-28T21:03:58.970Z,8.75
2022-09-28T21:06:30.709Z,8.73
2022-09-28T21:08:58.031Z,7.68
2022-09-28T21:11:27.914Z,6.10
2022-09-28T21:13:57.750Z,6.82
2022-09-28T21:16:25.494Z,8.55
2022-09-28T21:18:52.155Z,6.50
2022-09-28T21:21:20.795Z,5.47
2022-09-28T21:23:47.794Z,6.30
2022-09-28T21:26:25.302Z,5.25
2022-09-28T21:28:59.379Z,7.07
2022-09-28T21:31:30.108Z,6.68
2022-09-28T21:33:57.847Z,4.43
2022-09-28T21:36:25.119Z,7.40
2022-09-28T21:38:51.688Z,6.72
2022-09-28T21:41:18.217Z,6.63
2022-09-28T21:43:45.741Z,7.80
2022-09-28T21:46:12.382Z,6.05
2022-09-28T21:48:38.932Z,7.97
2022-09-28T21:51:07.650Z,6.00
2022-09-28T21:53:36.352Z,5.22
2022-09-28T21:56:05.248Z,5.78
2022-09-28T21:58:34.048Z,6.65
2022-09-28T22:01:03.469Z,6.13
2022-09-28T22:03:32.101Z,5.90
2022-09-28T22:05:58.887Z,6.50
2022-09-28T22:08:26.113Z,5.45
2022-09-28T22:11:09.973Z,4.65
2022-09-28T22:13:54.467Z,6.57
2022-09-28T22:16:23.331Z,5.10
2022-09-28T22:18:50.434Z,4.95
2022-09-28T22:21:25.765Z,5.63
2022-09-28T22:23:52.935Z,6.22
2022-09-28T22:26:25.409Z,4.28
2022-09-28T22:28:54.363Z,6.03
2022-09-28T22:31:23.658Z,6.53
2022-09-28T22:33:50.308Z,6.15
2022-09-28T22:36:17.067Z,5.72
2022-09-28T22:38:44.654Z,6.03
2022-09-28T22:41:11.843Z,4.80
2022-09-28T22:43:38.823Z,5.65
2022-09-28T22:46:06.646Z,5.30
2022-09-28T22:48:34.749Z,5.78
2022-09-28T22:51:02.120Z,5.15
2022-09-28T22:53:28.686Z,6.78
2022-09-28T22:55:56.318Z,5.32
2022-09-28T22:58:23.716Z,4.50
2022-09-28T23:00:50.423Z,4.78
2022-09-28T23:03:17.826Z,4.72
2022-09-28T23:05:55.119Z,4.85
2022-09-28T23:08:23.118Z,6.57
2022-09-28T23:10:50.440Z,6.25
2022-09-28T23:13:17.548Z,5.60
2022-09-28T23:15:44.135Z,5.97
2022-09-28T23:18:10.773Z,5.95
2022-09-28T23:20:37.296Z,5.75
2022-09-28T23:23:03.819Z,4.57
2022-09-28T23:25:30.348Z,6.13
2022-09-28T23:27:56.856Z,7.78
2022-09-28T23:30:24.023Z,6.20
2022-09-28T23:32:52.840Z,4.75
2022-09-28T23:35:19.402Z,5.50
2022-09-28T23:37:50.192Z,6.30
2022-09-28T23:40:16.966Z,7.28
2022-09-28T23:42:43.726Z,5.63
2022-09-28T23:45:10.428Z,5.72
2022-09-28T23:47:37.646Z,5.68
2022-09-28T23:50:07.448Z,7.80
2022-09-28T23:52:34.136Z,7.47
2022-09-28T23:55:00.979Z,6.50
2022-09-28T23:57:27.496Z,8.15
2022-09-28T23:59:53.990Z,6.50
